Hourly Observations for April 16, 2018

Temp ( °F °C ) Dew Point ( °F °C ) Humidity (%) Winds ( mph kmh ) Pressure ( in mb ) Visibility ( mi km ) Precip ( " mm )
12:53 am 00:53 Clear 44 6.7 38 3.3 79 79 NNE 6 9 30.3 1026 10 16.09344 0 0
1:53 am 01:53 Clear 43 6.1 38 3.3 82 82 N 6 9 30.3 1026 10 16.09344 0 0
2:53 am 02:53 Clear 42 5.6 38 3.3 85 85 Calm 30.3 1026 10 16.09344 0 0
3:53 am 03:53 Clear 43 6.1 38 3.3 82 82 NNE 5 7 30.3 1026 10 16.09344 0 0
4:53 am 04:53 Clear 43 6.1 38 3.3 82 82 N 6 9 30.3 1026 10 16.09344 0 0
5:53 am 05:53 Clear with Mist and Fog 42 5.6 38 3.3 85 85 Calm 30.33 1027 5 8.04672 0 0
6:53 am 06:53 Clear with Mist and Fog 42 5.6 38 3.3 85 85 N 3 6 30.3 1026 6 9.656064 0 0
7:53 am 07:53 Sunny 43 6.1 39 3.9 86 86 NNE 3 6 30.3 1026 10 16.09344 0 0
8:53 am 08:53 Mostly Sunny 45 7.2 38 3.3 77 77 NNE 6 9 30.3 1026 10 16.09344 0 0
9:53 am 09:53 Sunny 47 8.3 38 3.3 71 71 NNE 8 13 30.3 1026 10 16.09344 0 0
10:53 am 10:53 Sunny 49 9.4 38 3.3 66 66 N 6 9 30.3 1026 10 16.09344 0 0
11:53 am 11:53 Sunny 50 10 38 3.3 63 63 NNE 5 7 30.27 1025 10 16.09344 0 0
12:53 pm 12:53 Sunny 50 10 38 3.3 63 63 NE 5 7 30.24 1024 10 16.09344 0 0
1:53 pm 13:53 Sunny 50 10 38 3.3 63 63 Calm 30.24 1024 10 16.09344 0 0
2:53 pm 14:53 Sunny 50 10 38 3.3 63 63 Calm 30.24 1024 10 16.09344 0 0
3:53 pm 15:53 Sunny 50 10 38 3.3 63 63 Calm 30.21 1023 10 16.09344 0 0
4:53 pm 16:53 Sunny 50 10 39 3.9 66 66 Calm 30.21 1023 10 16.09344 0 0
5:53 pm 17:53 Sunny 49 9.4 40 4.4 71 71 Calm 30.18 1022 10 16.09344 0 0
6:53 pm 18:53 Clear 46 7.8 41 5 83 83 SW 3 6 30.21 1023 10 16.09344 0 0
7:53 pm 19:53 Clear 44 6.7 41 5 89 89 Calm 30.24 1024 10 16.09344 0 0
8:53 pm 20:53 Clear 44 6.7 40 4.4 85 85 Calm 30.24 1024 10 16.09344 0 0
9:53 pm 21:53 Clear 44 6.7 40 4.4 85 85 Calm 30.27 1025 10 16.09344 0 0
10:53 pm 22:53 Clear 44 6.7 40 4.4 85 85 W 5 7 30.27 1025 10 16.09344 0 0

Powered by AerisWeather

Site Deisgn Provided by Innovations Branding House, Paducah, KY